sensor_id;sensor_type;location;lat;lon;timestamp;P1;durP1;ratioP1;P2;durP2;ratioP2
27804;SDS011;15183;51.350;11.102;2023-04-08T00:00:35;11.73;;;8.60;;
27804;SDS011;15183;51.350;11.102;2023-04-08T00:03:02;7.60;;;5.90;;
27804;SDS011;15183;51.350;11.102;2023-04-08T00:05:29;12.63;;;8.15;;
27804;SDS011;15183;51.350;11.102;2023-04-08T00:07:55;14.15;;;9.10;;
27804;SDS011;15183;51.350;11.102;2023-04-08T00:10:22;9.40;;;6.90;;
27804;SDS011;15183;51.350;11.102;2023-04-08T00:12:49;9.40;;;6.78;;
27804;SDS011;15183;51.350;11.102;2023-04-08T00:15:16;7.15;;;5.43;;
27804;SDS011;15183;51.350;11.102;2023-04-08T00:17:42;9.65;;;6.72;;
27804;SDS011;15183;51.350;11.102;2023-04-08T00:20:10;11.32;;;7.93;;
27804;SDS011;15183;51.350;11.102;2023-04-08T00:22:36;11.23;;;7.63;;
27804;SDS011;15183;51.350;11.102;2023-04-08T00:25:03;9.18;;;6.32;;
27804;SDS011;15183;51.350;11.102;2023-04-08T00:27:34;10.32;;;7.78;;
27804;SDS011;15183;51.350;11.102;2023-04-08T00:30:00;6.50;;;5.20;;
27804;SDS011;15183;51.350;11.102;2023-04-08T00:32:28;7.82;;;5.00;;
27804;SDS011;15183;51.350;11.102;2023-04-08T00:34:54;9.77;;;7.60;;
27804;SDS011;15183;51.350;11.102;2023-04-08T00:37:21;6.22;;;4.75;;
27804;SDS011;15183;51.350;11.102;2023-04-08T00:39:47;9.38;;;6.22;;
27804;SDS011;15183;51.350;11.102;2023-04-08T00:42:14;7.88;;;5.95;;
27804;SDS011;15183;51.350;11.102;2023-04-08T00:44:41;6.28;;;4.88;;
27804;SDS011;15183;51.350;11.102;2023-04-08T00:47:10;4.93;;;3.90;;
27804;SDS011;15183;51.350;11.102;2023-04-08T00:49:41;8.05;;;5.70;;
27804;SDS011;15183;51.350;11.102;2023-04-08T00:52:08;5.35;;;4.25;;
27804;SDS011;15183;51.350;11.102;2023-04-08T00:54:35;9.10;;;7.00;;
27804;SDS011;15183;51.350;11.102;2023-04-08T00:57:03;9.05;;;6.63;;
27804;SDS011;15183;51.350;11.102;2023-04-08T00:59:31;8.48;;;5.93;;
27804;SDS011;15183;51.350;11.102;2023-04-08T01:02:02;5.57;;;4.15;;
27804;SDS011;15183;51.350;11.102;2023-04-08T01:04:54;6.45;;;4.85;;
27804;SDS011;15183;51.350;11.102;2023-04-08T01:07:45;9.10;;;6.10;;
27804;SDS011;15183;51.350;11.102;2023-04-08T01:10:27;7.47;;;5.15;;
27804;SDS011;15183;51.350;11.102;2023-04-08T01:12:57;7.28;;;5.15;;
27804;SDS011;15183;51.350;11.102;2023-04-08T01:15:28;10.48;;;7.22;;
27804;SDS011;15183;51.350;11.102;2023-04-08T01:17:58;10.82;;;7.63;;
27804;SDS011;15183;51.350;11.102;2023-04-08T01:20:26;7.72;;;5.93;;
27804;SDS011;15183;51.350;11.102;2023-04-08T01:23:00;8.38;;;6.38;;
27804;SDS011;15183;51.350;11.102;2023-04-08T01:28:28;8.40;;;6.18;;
27804;SDS011;15183;51.350;11.102;2023-04-08T01:30:56;8.27;;;5.53;;
27804;SDS011;15183;51.350;11.102;2023-04-08T01:33:25;7.03;;;5.20;;
27804;SDS011;15183;51.350;11.102;2023-04-08T01:35:53;10.75;;;7.05;;
27804;SDS011;15183;51.350;11.102;2023-04-08T01:38:22;13.40;;;8.30;;
27804;SDS011;15183;51.350;11.102;2023-04-08T01:40:51;10.35;;;6.80;;
27804;SDS011;15183;51.350;11.102;2023-04-08T01:43:20;6.55;;;5.05;;
27804;SDS011;15183;51.350;11.102;2023-04-08T01:45:47;6.65;;;4.40;;
27804;SDS011;15183;51.350;11.102;2023-04-08T01:48:14;7.80;;;5.80;;
27804;SDS011;15183;51.350;11.102;2023-04-08T01:50:41;7.10;;;4.95;;
27804;SDS011;15183;51.350;11.102;2023-04-08T01:53:09;6.10;;;4.72;;
27804;SDS011;15183;51.350;11.102;2023-04-08T01:55:37;9.98;;;6.13;;
27804;SDS011;15183;51.350;11.102;2023-04-08T01:58:06;8.70;;;5.05;;
27804;SDS011;15183;51.350;11.102;2023-04-08T02:00:33;6.15;;;4.75;;
27804;SDS011;15183;51.350;11.102;2023-04-08T02:03:01;5.07;;;4.55;;
27804;SDS011;15183;51.350;11.102;2023-04-08T02:05:30;6.25;;;4.97;;
27804;SDS011;15183;51.350;11.102;2023-04-08T02:07:56;7.65;;;4.72;;
27804;SDS011;15183;51.350;11.102;2023-04-08T02:10:22;5.03;;;4.40;;
27804;SDS011;15183;51.350;11.102;2023-04-08T02:12:49;5.68;;;4.70;;
27804;SDS011;15183;51.350;11.102;2023-04-08T02:15:15;9.23;;;6.43;;
27804;SDS011;15183;51.350;11.102;2023-04-08T02:17:46;7.45;;;5.68;;
27804;SDS011;15183;51.350;11.102;2023-04-08T02:23:05;5.10;;;4.20;;
27804;SDS011;15183;51.350;11.102;2023-04-08T02:25:39;4.65;;;4.00;;
27804;SDS011;15183;51.350;11.102;2023-04-08T02:28:10;5.28;;;4.28;;
27804;SDS011;15183;51.350;11.102;2023-04-08T02:30:40;4.95;;;4.43;;
27804;SDS011;15183;51.350;11.102;2023-04-08T02:33:09;6.10;;;4.97;;
27804;SDS011;15183;51.350;11.102;2023-04-08T02:35:39;5.07;;;4.50;;
27804;SDS011;15183;51.350;11.102;2023-04-08T02:38:06;6.18;;;4.95;;
27804;SDS011;15183;51.350;11.102;2023-04-08T02:40:35;5.07;;;4.20;;
27804;SDS011;15183;51.350;11.102;2023-04-08T02:43:02;5.57;;;4.30;;
27804;SDS011;15183;51.350;11.102;2023-04-08T02:45:29;8.48;;;5.82;;
27804;SDS011;15183;51.350;11.102;2023-04-08T02:47:58;7.97;;;5.85;;
27804;SDS011;15183;51.350;11.102;2023-04-08T02:50:25;11.98;;;7.93;;
27804;SDS011;15183;51.350;11.102;2023-04-08T02:52:52;9.30;;;6.28;;
27804;SDS011;15183;51.350;11.102;2023-04-08T02:55:18;6.13;;;5.03;;
27804;SDS011;15183;51.350;11.102;2023-04-08T02:57:45;5.45;;;4.38;;
27804;SDS011;15183;51.350;11.102;2023-04-08T03:00:13;3.75;;;3.40;;
27804;SDS011;15183;51.350;11.102;2023-04-08T03:02:40;4.63;;;4.10;;
27804;SDS011;15183;51.350;11.102;2023-04-08T03:05:07;8.30;;;6.10;;
27804;SDS011;15183;51.350;11.102;2023-04-08T03:07:34;6.15;;;4.80;;
27804;SDS011;15183;51.350;11.102;2023-04-08T03:10:01;6.68;;;4.65;;
27804;SDS011;15183;51.350;11.102;2023-04-08T03:12:28;3.80;;;3.42;;
27804;SDS011;15183;51.350;11.102;2023-04-08T03:14:54;4.68;;;3.80;;
27804;SDS011;15183;51.350;11.102;2023-04-08T03:17:21;5.75;;;4.13;;
27804;SDS011;15183;51.350;11.102;2023-04-08T03:19:47;5.43;;;4.43;;
27804;SDS011;15183;51.350;11.102;2023-04-08T03:22:13;4.10;;;3.53;;
27804;SDS011;15183;51.350;11.102;2023-04-08T03:24:40;5.95;;;3.70;;
27804;SDS011;15183;51.350;11.102;2023-04-08T03:27:07;3.22;;;2.92;;
27804;SDS011;15183;51.350;11.102;2023-04-08T03:29:33;4.85;;;3.78;;
27804;SDS011;15183;51.350;11.102;2023-04-08T03:31:59;3.90;;;3.17;;
27804;SDS011;15183;51.350;11.102;2023-04-08T03:34:26;5.53;;;4.05;;
27804;SDS011;15183;51.350;11.102;2023-04-08T03:36:52;4.53;;;3.60;;
27804;SDS011;15183;51.350;11.102;2023-04-08T03:39:19;4.93;;;3.55;;
27804;SDS011;15183;51.350;11.102;2023-04-08T03:41:45;8.75;;;3.90;;
27804;SDS011;15183;51.350;11.102;2023-04-08T03:44:11;5.68;;;3.42;;
27804;SDS011;15183;51.350;11.102;2023-04-08T03:46:38;3.33;;;2.95;;
27804;SDS011;15183;51.350;11.102;2023-04-08T03:49:04;4.25;;;3.28;;
27804;SDS011;15183;51.350;11.102;2023-04-08T03:51:31;4.00;;;2.92;;
27804;SDS011;15183;51.350;11.102;2023-04-08T03:53:58;3.35;;;2.92;;
27804;SDS011;15183;51.350;11.102;2023-04-08T03:56:24;3.88;;;2.63;;
27804;SDS011;15183;51.350;11.102;2023-04-08T03:58:51;5.32;;;3.65;;
27804;SDS011;15183;51.350;11.102;2023-04-08T04:01:17;3.88;;;3.15;;
27804;SDS011;15183;51.350;11.102;2023-04-08T04:03:43;5.38;;;4.18;;
27804;SDS011;15183;51.350;11.102;2023-04-08T04:06:10;4.05;;;3.38;;
27804;SDS011;15183;51.350;11.102;2023-04-08T04:08:36;4.82;;;3.13;;
27804;SDS011;15183;51.350;11.102;2023-04-08T04:11:03;4.90;;;3.60;;
27804;SDS011;15183;51.350;11.102;2023-04-08T04:13:29;7.38;;;4.93;;
27804;SDS011;15183;51.350;11.102;2023-04-08T04:15:56;3.58;;;3.17;;
27804;SDS011;15183;51.350;11.102;2023-04-08T04:18:22;3.40;;;3.10;;
27804;SDS011;15183;51.350;11.102;2023-04-08T04:20:48;3.75;;;2.75;;
27804;SDS011;15183;51.350;11.102;2023-04-08T04:23:15;3.08;;;2.50;;
27804;SDS011;15183;51.350;11.102;2023-04-08T04:25:41;6.95;;;3.42;;
27804;SDS011;15183;51.350;11.102;2023-04-08T04:28:08;3.83;;;3.13;;
27804;SDS011;15183;51.350;11.102;2023-04-08T04:30:35;3.97;;;3.30;;
27804;SDS011;15183;51.350;11.102;2023-04-08T04:33:03;4.20;;;2.97;;
27804;SDS011;15183;51.350;11.102;2023-04-08T04:35:30;2.95;;;2.55;;
27804;SDS011;15183;51.350;11.102;2023-04-08T04:37:57;3.20;;;2.70;;
27804;SDS011;15183;51.350;11.102;2023-04-08T04:40:23;3.47;;;2.58;;
27804;SDS011;15183;51.350;11.102;2023-04-08T04:42:50;7.75;;;5.32;;
27804;SDS011;15183;51.350;11.102;2023-04-08T04:45:16;5.00;;;3.70;;
27804;SDS011;15183;51.350;11.102;2023-04-08T04:47:42;3.50;;;3.03;;
27804;SDS011;15183;51.350;11.102;2023-04-08T04:50:09;4.47;;;2.83;;
27804;SDS011;15183;51.350;11.102;2023-04-08T04:52:35;4.47;;;2.75;;
27804;SDS011;15183;51.350;11.102;2023-04-08T04:55:02;5.72;;;4.20;;
27804;SDS011;15183;51.350;11.102;2023-04-08T04:57:29;5.90;;;3.70;;
27804;SDS011;15183;51.350;11.102;2023-04-08T04:59:55;4.80;;;3.88;;
27804;SDS011;15183;51.350;11.102;2023-04-08T05:02:22;5.70;;;3.92;;
27804;SDS011;15183;51.350;11.102;2023-04-08T05:04:48;4.55;;;3.70;;
27804;SDS011;15183;51.350;11.102;2023-04-08T05:07:14;6.03;;;4.45;;
27804;SDS011;15183;51.350;11.102;2023-04-08T05:09:41;6.85;;;4.70;;
27804;SDS011;15183;51.350;11.102;2023-04-08T05:12:07;6.40;;;4.63;;
27804;SDS011;15183;51.350;11.102;2023-04-08T05:14:34;4.28;;;3.35;;
27804;SDS011;15183;51.350;11.102;2023-04-08T05:17:00;5.82;;;2.92;;
27804;SDS011;15183;51.350;11.102;2023-04-08T05:19:26;4.50;;;3.15;;
27804;SDS011;15183;51.350;11.102;2023-04-08T05:21:53;3.70;;;2.75;;
27804;SDS011;15183;51.350;11.102;2023-04-08T05:24:19;4.43;;;3.20;;
27804;SDS011;15183;51.350;11.102;2023-04-08T05:26:46;5.40;;;3.90;;
27804;SDS011;15183;51.350;11.102;2023-04-08T05:29:16;6.50;;;4.97;;
27804;SDS011;15183;51.350;11.102;2023-04-08T05:31:43;4.22;;;3.50;;
27804;SDS011;15183;51.350;11.102;2023-04-08T05:34:10;3.75;;;2.95;;
27804;SDS011;15183;51.350;11.102;2023-04-08T05:36:36;4.88;;;3.85;;
27804;SDS011;15183;51.350;11.102;2023-04-08T05:39:03;6.60;;;5.63;;
27804;SDS011;15183;51.350;11.102;2023-04-08T05:41:29;7.55;;;5.43;;
27804;SDS011;15183;51.350;11.102;2023-04-08T05:43:55;12.25;;;7.97;;
27804;SDS011;15183;51.350;11.102;2023-04-08T05:46:22;13.43;;;7.88;;
27804;SDS011;15183;51.350;11.102;2023-04-08T05:48:48;6.90;;;4.70;;
27804;SDS011;15183;51.350;11.102;2023-04-08T05:51:15;8.38;;;6.15;;
27804;SDS011;15183;51.350;11.102;2023-04-08T05:53:46;11.63;;;7.68;;
27804;SDS011;15183;51.350;11.102;2023-04-08T05:56:13;9.93;;;6.60;;
27804;SDS011;15183;51.350;11.102;2023-04-08T05:58:39;7.95;;;5.95;;
27804;SDS011;15183;51.350;11.102;2023-04-08T06:01:06;6.00;;;4.18;;
27804;SDS011;15183;51.350;11.102;2023-04-08T06:03:32;8.45;;;5.95;;
27804;SDS011;15183;51.350;11.102;2023-04-08T06:05:59;8.68;;;5.10;;
27804;SDS011;15183;51.350;11.102;2023-04-08T06:08:25;6.32;;;4.72;;
27804;SDS011;15183;51.350;11.102;2023-04-08T06:10:52;12.70;;;8.10;;
27804;SDS011;15183;51.350;11.102;2023-04-08T06:13:18;7.38;;;5.45;;
27804;SDS011;15183;51.350;11.102;2023-04-08T06:15:46;7.85;;;5.55;;
27804;SDS011;15183;51.350;11.102;2023-04-08T06:18:16;9.02;;;6.35;;
27804;SDS011;15183;51.350;11.102;2023-04-08T06:20:42;8.77;;;6.38;;
27804;SDS011;15183;51.350;11.102;2023-04-08T06:23:09;9.00;;;6.65;;
27804;SDS011;15183;51.350;11.102;2023-04-08T06:25:35;60.65;;;32.10;;
27804;SDS011;15183;51.350;11.102;2023-04-08T06:28:02;22.30;;;14.70;;
27804;SDS011;15183;51.350;11.102;2023-04-08T06:30:28;22.27;;;14.35;;
27804;SDS011;15183;51.350;11.102;2023-04-08T06:32:54;17.58;;;12.23;;
27804;SDS011;15183;51.350;11.102;2023-04-08T06:35:21;18.77;;;12.05;;
27804;SDS011;15183;51.350;11.102;2023-04-08T06:37:47;29.58;;;18.58;;
27804;SDS011;15183;51.350;11.102;2023-04-08T06:40:14;28.77;;;17.05;;
27804;SDS011;15183;51.350;11.102;2023-04-08T06:42:40;21.60;;;14.45;;
27804;SDS011;15183;51.350;11.102;2023-04-08T06:45:09;15.55;;;10.63;;
27804;SDS011;15183;51.350;11.102;2023-04-08T06:47:36;8.25;;;5.97;;
27804;SDS011;15183;51.350;11.102;2023-04-08T06:50:02;5.50;;;3.92;;
27804;SDS011;15183;51.350;11.102;2023-04-08T06:52:29;4.63;;;3.38;;
27804;SDS011;15183;51.350;11.102;2023-04-08T06:54:55;5.78;;;3.88;;
27804;SDS011;15183;51.350;11.102;2023-04-08T06:57:22;4.68;;;3.70;;
27804;SDS011;15183;51.350;11.102;2023-04-08T06:59:48;5.13;;;3.83;;
27804;SDS011;15183;51.350;11.102;2023-04-08T07:02:15;5.15;;;3.80;;
27804;SDS011;15183;51.350;11.102;2023-04-08T07:04:41;6.20;;;3.90;;
27804;SDS011;15183;51.350;11.102;2023-04-08T07:07:07;9.65;;;6.05;;
27804;SDS011;15183;51.350;11.102;2023-04-08T07:09:34;12.15;;;8.07;;
27804;SDS011;15183;51.350;11.102;2023-04-08T07:12:01;9.93;;;6.88;;
27804;SDS011;15183;51.350;11.102;2023-04-08T07:14:29;12.38;;;6.65;;
27804;SDS011;15183;51.350;11.102;2023-04-08T07:16:56;9.57;;;5.53;;
27804;SDS011;15183;51.350;11.102;2023-04-08T07:19:22;6.78;;;4.32;;
27804;SDS011;15183;51.350;11.102;2023-04-08T07:21:49;5.90;;;4.53;;
27804;SDS011;15183;51.350;11.102;2023-04-08T07:24:17;6.25;;;4.20;;
27804;SDS011;15183;51.350;11.102;2023-04-08T07:26:43;12.43;;;6.97;;
27804;SDS011;15183;51.350;11.102;2023-04-08T07:29:10;9.48;;;6.15;;
27804;SDS011;15183;51.350;11.102;2023-04-08T07:31:36;5.90;;;4.10;;
27804;SDS011;15183;51.350;11.102;2023-04-08T07:34:03;5.28;;;4.00;;
27804;SDS011;15183;51.350;11.102;2023-04-08T07:36:29;5.78;;;4.47;;
27804;SDS011;15183;51.350;11.102;2023-04-08T07:38:56;8.93;;;5.60;;
27804;SDS011;15183;51.350;11.102;2023-04-08T07:41:22;5.05;;;3.95;;
27804;SDS011;15183;51.350;11.102;2023-04-08T07:43:49;6.20;;;3.80;;
27804;SDS011;15183;51.350;11.102;2023-04-08T07:46:15;12.65;;;8.02;;
27804;SDS011;15183;51.350;11.102;2023-04-08T07:48:41;10.00;;;6.45;;
27804;SDS011;15183;51.350;11.102;2023-04-08T07:51:08;7.40;;;5.20;;
27804;SDS011;15183;51.350;11.102;2023-04-08T07:53:35;6.20;;;4.82;;
27804;SDS011;15183;51.350;11.102;2023-04-08T07:56:01;9.70;;;6.32;;
27804;SDS011;15183;51.350;11.102;2023-04-08T07:58:31;6.78;;;5.03;;
27804;SDS011;15183;51.350;11.102;2023-04-08T08:00:57;6.35;;;4.18;;
27804;SDS011;15183;51.350;11.102;2023-04-08T08:03:24;9.57;;;5.43;;
27804;SDS011;15183;51.350;11.102;2023-04-08T08:05:50;12.10;;;7.70;;
27804;SDS011;15183;51.350;11.102;2023-04-08T08:08:16;6.47;;;5.07;;
27804;SDS011;15183;51.350;11.102;2023-04-08T08:10:43;20.88;;;12.82;;
27804;SDS011;15183;51.350;11.102;2023-04-08T08:13:09;7.15;;;4.90;;
27804;SDS011;15183;51.350;11.102;2023-04-08T08:15:39;8.35;;;5.60;;
27804;SDS011;15183;51.350;11.102;2023-04-08T08:18:06;6.13;;;4.32;;
27804;SDS011;15183;51.350;11.102;2023-04-08T08:20:34;6.97;;;5.32;;
27804;SDS011;15183;51.350;11.102;2023-04-08T08:23:00;22.30;;;12.35;;
27804;SDS011;15183;51.350;11.102;2023-04-08T08:25:27;10.15;;;7.28;;
27804;SDS011;15183;51.350;11.102;2023-04-08T08:27:53;19.85;;;12.27;;
27804;SDS011;15183;51.350;11.102;2023-04-08T08:30:20;10.70;;;7.43;;
27804;SDS011;15183;51.350;11.102;2023-04-08T08:32:46;15.75;;;10.18;;
27804;SDS011;15183;51.350;11.102;2023-04-08T08:35:13;19.10;;;11.65;;
27804;SDS011;15183;51.350;11.102;2023-04-08T08:37:39;12.38;;;8.38;;
27804;SDS011;15183;51.350;11.102;2023-04-08T08:40:06;21.20;;;13.73;;
27804;SDS011;15183;51.350;11.102;2023-04-08T08:42:34;19.70;;;12.77;;
27804;SDS011;15183;51.350;11.102;2023-04-08T08:45:01;15.93;;;10.68;;
27804;SDS011;15183;51.350;11.102;2023-04-08T08:47:28;17.00;;;11.07;;
27804;SDS011;15183;51.350;11.102;2023-04-08T08:49:55;11.23;;;8.25;;
27804;SDS011;15183;51.350;11.102;2023-04-08T08:52:22;10.93;;;7.53;;
27804;SDS011;15183;51.350;11.102;2023-04-08T08:54:55;14.23;;;10.15;;
27804;SDS011;15183;51.350;11.102;2023-04-08T08:57:23;15.95;;;9.80;;
27804;SDS011;15183;51.350;11.102;2023-04-08T08:59:50;8.63;;;6.30;;
27804;SDS011;15183;51.350;11.102;2023-04-08T09:02:23;16.45;;;11.18;;
27804;SDS011;15183;51.350;11.102;2023-04-08T09:04:58;9.13;;;6.80;;
27804;SDS011;15183;51.350;11.102;2023-04-08T09:07:30;13.07;;;8.45;;
27804;SDS011;15183;51.350;11.102;2023-04-08T09:10:01;13.45;;;9.25;;
27804;SDS011;15183;51.350;11.102;2023-04-08T09:12:28;20.55;;;13.07;;
27804;SDS011;15183;51.350;11.102;2023-04-08T09:15:02;17.70;;;12.38;;
27804;SDS011;15183;51.350;11.102;2023-04-08T09:17:34;17.77;;;11.35;;
27804;SDS011;15183;51.350;11.102;2023-04-08T09:20:07;11.55;;;8.15;;
27804;SDS011;15183;51.350;11.102;2023-04-08T09:25:27;8.23;;;5.43;;
27804;SDS011;15183;51.350;11.102;2023-04-08T09:27:55;26.33;;;16.80;;
27804;SDS011;15183;51.350;11.102;2023-04-08T09:30:25;27.35;;;17.85;;
27804;SDS011;15183;51.350;11.102;2023-04-08T09:32:53;14.80;;;9.88;;
27804;SDS011;15183;51.350;11.102;2023-04-08T09:35:22;18.92;;;12.90;;
27804;SDS011;15183;51.350;11.102;2023-04-08T09:37:50;18.33;;;11.93;;
27804;SDS011;15183;51.350;11.102;2023-04-08T09:40:16;16.27;;;10.50;;
27804;SDS011;15183;51.350;11.102;2023-04-08T09:42:45;15.13;;;9.77;;
27804;SDS011;15183;51.350;11.102;2023-04-08T09:45:15;16.92;;;10.80;;
27804;SDS011;15183;51.350;11.102;2023-04-08T09:47:48;6.88;;;4.70;;
27804;SDS011;15183;51.350;11.102;2023-04-08T09:50:35;6.05;;;3.75;;
27804;SDS011;15183;51.350;11.102;2023-04-08T09:56:16;4.13;;;3.35;;
27804;SDS011;15183;51.350;11.102;2023-04-08T09:58:51;2.75;;;2.05;;
27804;SDS011;15183;51.350;11.102;2023-04-08T10:01:27;2.22;;;2.03;;
27804;SDS011;15183;51.350;11.102;2023-04-08T10:04:07;3.47;;;2.72;;
27804;SDS011;15183;51.350;11.102;2023-04-08T10:06:39;4.35;;;2.90;;
27804;SDS011;15183;51.350;11.102;2023-04-08T10:09:06;3.33;;;2.92;;
27804;SDS011;15183;51.350;11.102;2023-04-08T10:11:33;5.38;;;3.60;;
27804;SDS011;15183;51.350;11.102;2023-04-08T10:14:01;4.60;;;3.30;;
27804;SDS011;15183;51.350;11.102;2023-04-08T10:16:27;3.30;;;2.97;;
27804;SDS011;15183;51.350;11.102;2023-04-08T10:18:54;3.50;;;2.78;;
27804;SDS011;15183;51.350;11.102;2023-04-08T10:21:31;3.47;;;2.92;;
27804;SDS011;15183;51.350;11.102;2023-04-08T10:24:09;5.50;;;4.05;;
27804;SDS011;15183;51.350;11.102;2023-04-08T10:26:43;4.72;;;3.65;;
27804;SDS011;15183;51.350;11.102;2023-04-08T10:31:49;5.70;;;4.55;;
27804;SDS011;15183;51.350;11.102;2023-04-08T10:34:16;8.20;;;5.68;;
27804;SDS011;15183;51.350;11.102;2023-04-08T10:36:45;8.85;;;6.32;;
27804;SDS011;15183;51.350;11.102;2023-04-08T10:39:12;6.85;;;4.97;;
27804;SDS011;15183;51.350;11.102;2023-04-08T10:41:42;7.70;;;5.75;;
27804;SDS011;15183;51.350;11.102;2023-04-08T10:44:15;7.53;;;5.80;;
27804;SDS011;15183;51.350;11.102;2023-04-08T10:46:44;9.25;;;6.32;;
27804;SDS011;15183;51.350;11.102;2023-04-08T10:49:11;11.02;;;7.32;;
27804;SDS011;15183;51.350;11.102;2023-04-08T10:51:38;9.70;;;7.15;;
27804;SDS011;15183;51.350;11.102;2023-04-08T10:54:07;9.93;;;7.35;;
27804;SDS011;15183;51.350;11.102;2023-04-08T10:56:35;9.50;;;7.10;;
27804;SDS011;15183;51.350;11.102;2023-04-08T10:59:11;10.43;;;7.68;;
27804;SDS011;15183;51.350;11.102;2023-04-08T11:01:42;19.13;;;11.73;;
27804;SDS011;15183;51.350;11.102;2023-04-08T11:04:10;12.07;;;8.35;;
27804;SDS011;15183;51.350;11.102;2023-04-08T11:06:41;14.38;;;10.13;;
27804;SDS011;15183;51.350;11.102;2023-04-08T11:09:09;14.98;;;9.38;;
27804;SDS011;15183;51.350;11.102;2023-04-08T11:11:35;11.98;;;7.93;;
27804;SDS011;15183;51.350;11.102;2023-04-08T11:14:02;11.23;;;7.63;;
27804;SDS011;15183;51.350;11.102;2023-04-08T11:16:30;11.63;;;8.32;;
27804;SDS011;15183;51.350;11.102;2023-04-08T11:18:57;14.20;;;8.95;;
27804;SDS011;15183;51.350;11.102;2023-04-08T11:21:24;13.85;;;9.15;;
27804;SDS011;15183;51.350;11.102;2023-04-08T11:23:54;11.82;;;8.60;;
27804;SDS011;15183;51.350;11.102;2023-04-08T11:26:20;13.30;;;9.10;;
27804;SDS011;15183;51.350;11.102;2023-04-08T11:28:47;11.80;;;8.32;;
27804;SDS011;15183;51.350;11.102;2023-04-08T11:31:16;14.30;;;9.15;;
27804;SDS011;15183;51.350;11.102;2023-04-08T11:33:48;13.73;;;8.90;;
27804;SDS011;15183;51.350;11.102;2023-04-08T11:36:19;14.40;;;8.70;;
27804;SDS011;15183;51.350;11.102;2023-04-08T11:38:46;11.90;;;7.97;;
27804;SDS011;15183;51.350;11.102;2023-04-08T11:41:13;13.88;;;7.95;;
27804;SDS011;15183;51.350;11.102;2023-04-08T11:43:50;13.82;;;9.18;;
27804;SDS011;15183;51.350;11.102;2023-04-08T11:46:21;20.73;;;11.40;;
27804;SDS011;15183;51.350;11.102;2023-04-08T11:49:01;20.17;;;11.00;;
27804;SDS011;15183;51.350;11.102;2023-04-08T11:51:33;31.58;;;17.33;;
27804;SDS011;15183;51.350;11.102;2023-04-08T11:54:25;24.30;;;14.18;;
27804;SDS011;15183;51.350;11.102;2023-04-08T11:56:56;27.85;;;15.57;;
27804;SDS011;15183;51.350;11.102;2023-04-08T11:59:24;28.63;;;18.05;;
27804;SDS011;15183;51.350;11.102;2023-04-08T12:01:51;15.40;;;10.35;;
27804;SDS011;15183;51.350;11.102;2023-04-08T12:04:17;13.63;;;9.27;;
27804;SDS011;15183;51.350;11.102;2023-04-08T12:06:44;14.88;;;10.13;;
27804;SDS011;15183;51.350;11.102;2023-04-08T12:09:12;15.13;;;9.45;;
27804;SDS011;15183;51.350;11.102;2023-04-08T12:11:38;13.07;;;9.48;;
27804;SDS011;15183;51.350;11.102;2023-04-08T12:14:05;14.32;;;9.05;;
27804;SDS011;15183;51.350;11.102;2023-04-08T12:16:34;16.75;;;11.00;;
27804;SDS011;15183;51.350;11.102;2023-04-08T12:19:00;15.10;;;9.90;;
27804;SDS011;15183;51.350;11.102;2023-04-08T12:21:27;15.55;;;10.38;;
27804;SDS011;15183;51.350;11.102;2023-04-08T12:23:53;13.45;;;9.20;;
27804;SDS011;15183;51.350;11.102;2023-04-08T12:26:20;18.10;;;11.30;;
27804;SDS011;15183;51.350;11.102;2023-04-08T12:28:46;15.75;;;10.90;;
27804;SDS011;15183;51.350;11.102;2023-04-08T12:31:12;17.83;;;10.80;;
27804;SDS011;15183;51.350;11.102;2023-04-08T12:33:39;14.48;;;9.77;;
27804;SDS011;15183;51.350;11.102;2023-04-08T12:36:05;13.77;;;10.10;;
27804;SDS011;15183;51.350;11.102;2023-04-08T12:38:32;19.50;;;12.40;;
27804;SDS011;15183;51.350;11.102;2023-04-08T12:40:58;16.33;;;11.25;;
27804;SDS011;15183;51.350;11.102;2023-04-08T12:43:25;22.75;;;14.88;;
27804;SDS011;15183;51.350;11.102;2023-04-08T12:45:51;15.30;;;11.02;;
27804;SDS011;15183;51.350;11.102;2023-04-08T12:48:18;13.45;;;10.02;;
27804;SDS011;15183;51.350;11.102;2023-04-08T12:50:45;27.10;;;16.83;;
27804;SDS011;15183;51.350;11.102;2023-04-08T12:53:13;16.48;;;11.73;;
27804;SDS011;15183;51.350;11.102;2023-04-08T12:55:40;15.98;;;10.93;;
27804;SDS011;15183;51.350;11.102;2023-04-08T12:58:06;15.52;;;10.90;;
27804;SDS011;15183;51.350;11.102;2023-04-08T13:00:33;16.40;;;10.10;;
27804;SDS011;15183;51.350;11.102;2023-04-08T13:03:02;14.30;;;10.40;;
27804;SDS011;15183;51.350;11.102;2023-04-08T13:05:30;14.63;;;9.82;;
27804;SDS011;15183;51.350;11.102;2023-04-08T13:07:57;14.80;;;10.60;;
27804;SDS011;15183;51.350;11.102;2023-04-08T13:10:23;15.20;;;10.73;;
27804;SDS011;15183;51.350;11.102;2023-04-08T13:12:51;16.58;;;11.38;;
27804;SDS011;15183;51.350;11.102;2023-04-08T13:15:17;14.30;;;10.23;;
27804;SDS011;15183;51.350;11.102;2023-04-08T13:17:43;18.42;;;12.90;;
27804;SDS011;15183;51.350;11.102;2023-04-08T13:20:10;16.33;;;11.38;;
27804;SDS011;15183;51.350;11.102;2023-04-08T13:22:37;14.55;;;10.27;;
27804;SDS011;15183;51.350;11.102;2023-04-08T13:25:03;12.40;;;9.38;;
27804;SDS011;15183;51.350;11.102;2023-04-08T13:27:31;19.45;;;13.30;;
27804;SDS011;15183;51.350;11.102;2023-04-08T13:29:57;17.05;;;11.27;;
27804;SDS011;15183;51.350;11.102;2023-04-08T13:32:24;14.93;;;10.10;;
27804;SDS011;15183;51.350;11.102;2023-04-08T13:34:50;21.85;;;13.85;;
27804;SDS011;15183;51.350;11.102;2023-04-08T13:37:17;18.73;;;12.43;;
27804;SDS011;15183;51.350;11.102;2023-04-08T13:39:43;20.63;;;13.95;;
27804;SDS011;15183;51.350;11.102;2023-04-08T13:42:09;14.20;;;10.18;;
27804;SDS011;15183;51.350;11.102;2023-04-08T13:44:36;16.92;;;11.70;;
27804;SDS011;15183;51.350;11.102;2023-04-08T13:47:02;14.85;;;11.10;;
27804;SDS011;15183;51.350;11.102;2023-04-08T13:49:29;15.35;;;10.43;;
27804;SDS011;15183;51.350;11.102;2023-04-08T13:51:56;13.23;;;9.30;;
27804;SDS011;15183;51.350;11.102;2023-04-08T13:54:22;12.70;;;8.85;;
27804;SDS011;15183;51.350;11.102;2023-04-08T13:56:48;12.75;;;9.75;;
27804;SDS011;15183;51.350;11.102;2023-04-08T13:59:15;15.02;;;10.07;;
27804;SDS011;15183;51.350;11.102;2023-04-08T14:01:41;13.98;;;10.02;;
27804;SDS011;15183;51.350;11.102;2023-04-08T14:04:08;16.25;;;10.48;;
27804;SDS011;15183;51.350;11.102;2023-04-08T14:06:34;14.88;;;11.20;;
27804;SDS011;15183;51.350;11.102;2023-04-08T14:09:01;17.30;;;11.93;;
27804;SDS011;15183;51.350;11.102;2023-04-08T14:11:27;14.77;;;10.15;;
27804;SDS011;15183;51.350;11.102;2023-04-08T14:13:54;14.40;;;10.35;;
27804;SDS011;15183;51.350;11.102;2023-04-08T14:16:20;16.33;;;10.10;;
27804;SDS011;15183;51.350;11.102;2023-04-08T14:18:47;19.77;;;12.00;;
27804;SDS011;15183;51.350;11.102;2023-04-08T14:21:14;14.68;;;10.48;;
27804;SDS011;15183;51.350;11.102;2023-04-08T14:23:42;19.95;;;11.93;;
27804;SDS011;15183;51.350;11.102;2023-04-08T14:26:09;16.45;;;10.95;;
27804;SDS011;15183;51.350;11.102;2023-04-08T14:28:35;16.45;;;10.70;;
27804;SDS011;15183;51.350;11.102;2023-04-08T14:31:02;22.63;;;13.07;;
27804;SDS011;15183;51.350;11.102;2023-04-08T14:33:29;19.05;;;12.05;;
27804;SDS011;15183;51.350;11.102;2023-04-08T14:35:56;20.42;;;12.85;;
27804;SDS011;15183;51.350;11.102;2023-04-08T14:38:23;19.67;;;11.98;;
27804;SDS011;15183;51.350;11.102;2023-04-08T14:40:50;18.58;;;12.05;;
27804;SDS011;15183;51.350;11.102;2023-04-08T14:43:17;15.50;;;11.20;;